createdAt,value
2018-02-20T00:02:03.429Z,74.20
2018-02-20T00:04:32.877Z,74.70
2018-02-20T00:07:02.108Z,74.70
2018-02-20T00:09:31.453Z,74.50
2018-02-20T00:12:00.676Z,74.20
2018-02-20T00:14:30.834Z,74.30
2018-02-20T00:17:00.071Z,74.70
2018-02-20T00:19:29.692Z,75.30
2018-02-20T00:21:59.066Z,74.70
2018-02-20T00:24:28.411Z,75.90
2018-02-20T00:26:57.646Z,74.80
2018-02-20T00:29:26.949Z,75.10
2018-02-20T00:31:56.181Z,75.60
2018-02-20T00:34:25.496Z,76.10
2018-02-20T00:36:54.721Z,75.30
2018-02-20T00:39:24.028Z,75.10
2018-02-20T00:41:53.271Z,74.40
2018-02-20T00:44:22.604Z,75.50
2018-02-20T00:46:51.833Z,74.30
2018-02-20T00:49:21.827Z,74.50
2018-02-20T00:51:51.132Z,74.50
2018-02-20T00:54:20.372Z,75.90
2018-02-20T00:56:49.676Z,75.90
2018-02-20T00:59:19.321Z,76.20
2018-02-20T01:01:48.636Z,75.20
2018-02-20T01:04:17.857Z,74.70
2018-02-20T01:06:47.259Z,74.60
2018-02-20T01:09:16.468Z,75.30
2018-02-20T01:11:45.844Z,74.30
2018-02-20T01:14:15.069Z,75.30
2018-02-20T01:16:44.440Z,75.70
2018-02-20T01:19:13.677Z,75.10
2018-02-20T01:21:42.901Z,75.80
2018-02-20T01:24:12.209Z,76.90
2018-02-20T01:26:41.660Z,75.80
2018-02-20T01:29:11.770Z,76.40
2018-02-20T01:31:41.165Z,75.70
2018-02-20T01:34:10.471Z,76.80
2018-02-20T01:36:39.791Z,76.10
2018-02-20T01:39:09.220Z,75.90
2018-02-20T01:41:38.480Z,75.80
2018-02-20T01:44:07.985Z,75.70
2018-02-20T01:46:37.925Z,75.30
2018-02-20T01:49:07.231Z,76.30
2018-02-20T01:51:37.230Z,75.60
2018-02-20T01:54:06.621Z,75.60
2018-02-20T01:56:35.871Z,76.60
2018-02-20T01:59:05.137Z,76.50
2018-02-20T02:01:34.416Z,76.80
2018-02-20T02:04:03.636Z,76.20
2018-02-20T02:06:33.719Z,77.30
2018-02-20T02:09:02.945Z,77.30
2018-02-20T02:11:32.260Z,77.00
2018-02-20T02:14:01.496Z,77.30
2018-02-20T02:16:30.939Z,76.70
2018-02-20T02:19:00.174Z,77.30
2018-02-20T02:21:29.560Z,77.30
2018-02-20T02:23:59.577Z,77.50
2018-02-20T02:26:28.775Z,77.40
2018-02-20T02:28:58.848Z,78.50
2018-02-20T02:31:28.125Z,78.50
2018-02-20T02:33:57.488Z,77.30
2018-02-20T02:36:26.712Z,77.10
2018-02-20T02:38:56.852Z,77.20
2018-02-20T02:41:26.868Z,77.10
2018-02-20T02:43:56.581Z,77.70
2018-02-20T02:46:25.816Z,79.30
2018-02-20T02:48:55.332Z,77.80
2018-02-20T02:51:24.547Z,77.80
2018-02-20T02:53:53.775Z,78.20
2018-02-20T02:56:23.076Z,78.30
2018-02-20T02:58:52.303Z,79.40
2018-02-20T03:01:21.628Z,78.80
2018-02-20T03:03:50.849Z,80.10
2018-02-20T03:06:20.176Z,78.50
2018-02-20T03:08:49.413Z,78.40
2018-02-20T03:11:18.728Z,78.50
2018-02-20T03:13:47.972Z,78.60
2018-02-20T03:16:19.011Z,78.50
2018-02-20T03:18:48.297Z,78.60
2018-02-20T03:21:17.619Z,78.30
2018-02-20T03:23:46.929Z,79.40
2018-02-20T03:26:16.160Z,78.60
2018-02-20T03:28:45.572Z,80.10
2018-02-20T03:31:14.925Z,79.70
2018-02-20T03:33:44.426Z,79.00
2018-02-20T03:36:13.752Z,78.60
2018-02-20T03:38:43.800Z,79.10
2018-02-20T03:41:13.314Z,80.10
2018-02-20T03:43:42.537Z,81.10
2018-02-20T03:46:11.912Z,79.80
2018-02-20T03:48:41.132Z,79.30
2018-02-20T03:51:10.355Z,79.40
2018-02-20T03:53:40.215Z,78.90
2018-02-20T03:56:09.444Z,79.10
2018-02-20T03:58:38.819Z,79.30
2018-02-20T04:01:08.079Z,80.20
2018-02-20T04:03:37.415Z,80.50
2018-02-20T04:06:06.640Z,80.10
2018-02-20T04:08:36.028Z,78.90
2018-02-20T04:11:05.249Z,79.80
2018-02-20T04:13:34.483Z,81.10
2018-02-20T04:16:03.806Z,80.10
2018-02-20T04:18:33.104Z,79.10
2018-02-20T04:21:02.532Z,79.80
2018-02-20T04:23:31.797Z,81.10
2018-02-20T04:26:02.680Z,81.70
2018-02-20T04:28:32.069Z,79.80
2018-02-20T04:31:01.759Z,79.60
2018-02-20T04:33:31.094Z,79.50
2018-02-20T04:36:01.100Z,80.30
2018-02-20T04:38:30.409Z,80.30
2018-02-20T04:40:59.643Z,80.10
2018-02-20T04:43:28.944Z,79.40
2018-02-20T04:45:58.197Z,80.20
2018-02-20T04:48:27.523Z,79.40
2018-02-20T04:50:57.518Z,79.80
2018-02-20T04:53:26.848Z,79.60
2018-02-20T04:55:56.088Z,79.30
2018-02-20T04:58:25.334Z,79.20
2018-02-20T05:00:55.400Z,80.20
2018-02-20T05:03:24.636Z,79.00
2018-02-20T05:05:55.788Z,78.20
2018-02-20T05:08:25.021Z,78.20
2018-02-20T05:10:55.163Z,78.40
2018-02-20T05:13:24.691Z,78.80
2018-02-20T05:15:54.115Z,78.60
2018-02-20T05:18:23.357Z,78.40
2018-02-20T05:20:52.711Z,79.10
2018-02-20T05:23:21.952Z,78.80
2018-02-20T05:25:52.020Z,77.50
2018-02-20T05:28:21.273Z,79.60
2018-02-20T05:30:50.765Z,78.70
2018-02-20T05:33:20.383Z,78.70
2018-02-20T05:35:49.768Z,79.40
2018-02-20T05:38:19.767Z,80.50
2018-02-20T05:40:49.091Z,80.50
2018-02-20T05:43:18.739Z,78.90
2018-02-20T05:45:47.973Z,79.50
2018-02-20T05:48:17.372Z,80.60
2018-02-20T05:50:46.619Z,79.50
2018-02-20T05:53:16.043Z,80.30
2018-02-20T05:55:45.263Z,80.90
2018-02-20T05:58:14.789Z,79.60
2018-02-20T06:00:44.012Z,80.20
2018-02-20T06:03:13.464Z,80.40
2018-02-20T06:05:42.695Z,80.60
2018-02-20T06:08:12.723Z,81.30
2018-02-20T06:10:42.101Z,80.30
2018-02-20T06:13:11.334Z,80.20
2018-02-20T06:15:40.651Z,79.90
2018-02-20T06:18:09.884Z,79.70
2018-02-20T06:20:39.309Z,80.10
2018-02-20T06:23:08.971Z,80.50
2018-02-20T06:25:38.731Z,80.90
2018-02-20T06:28:07.964Z,80.60
2018-02-20T06:30:37.337Z,79.70
2018-02-20T06:33:06.624Z,79.00
2018-02-20T06:35:36.760Z,78.90
2018-02-20T06:38:06.503Z,79.00
2018-02-20T06:40:36.582Z,80.90
2018-02-20T06:43:06.095Z,80.90
2018-02-20T06:45:35.315Z,78.90
2018-02-20T06:48:04.634Z,79.20
2018-02-20T06:50:33.867Z,79.80
2018-02-20T06:53:03.292Z,80.60
2018-02-20T06:55:32.520Z,80.80
2018-02-20T06:58:01.895Z,80.20
2018-02-20T07:00:31.140Z,80.30
2018-02-20T07:03:00.696Z,78.60
2018-02-20T07:05:29.924Z,79.20
2018-02-20T07:07:59.750Z,77.80
2018-02-20T07:10:29.216Z,77.00
2018-02-20T07:12:58.450Z,75.70
2018-02-20T07:15:27.843Z,77.20
2018-02-20T07:17:57.822Z,75.90
2018-02-20T07:20:27.248Z,75.80
2018-02-20T07:22:56.692Z,76.50
2018-02-20T07:25:26.007Z,76.90
2018-02-20T07:27:56.149Z,76.20
2018-02-20T07:30:25.686Z,73.40
2018-02-20T07:32:55.053Z,74.60
2018-02-20T07:35:24.478Z,73.20
2018-02-20T07:37:53.700Z,72.80
2018-02-20T07:40:23.089Z,72.30
2018-02-20T07:42:52.315Z,73.00
2018-02-20T07:45:21.575Z,73.80
2018-02-20T07:47:51.108Z,73.50
2018-02-20T07:50:21.104Z,73.80
2018-02-20T07:52:51.936Z,73.20
2018-02-20T07:55:21.724Z,73.10
2018-02-20T07:57:51.361Z,73.90
2018-02-20T08:00:20.652Z,73.10
2018-02-20T08:02:50.075Z,72.60
2018-02-20T08:05:19.295Z,72.70
2018-02-20T08:07:48.672Z,71.20
2018-02-20T08:10:17.895Z,71.20
2018-02-20T08:12:47.113Z,71.20
2018-02-20T08:15:16.564Z,71.00
2018-02-20T08:17:45.791Z,70.70
2018-02-20T08:20:15.169Z,70.00
2018-02-20T08:22:44.387Z,70.60
2018-02-20T08:25:13.766Z,69.70
2018-02-20T08:27:43.786Z,69.20
2018-02-20T08:30:13.192Z,70.00
2018-02-20T08:32:42.739Z,70.00
2018-02-20T08:35:12.795Z,68.20
2018-02-20T08:37:42.019Z,68.10
2018-02-20T08:40:12.837Z,67.30
2018-02-20T08:42:42.819Z,66.00
2018-02-20T08:45:12.272Z,65.90
2018-02-20T08:47:42.279Z,66.20
2018-02-20T08:50:11.525Z,65.90
2018-02-20T08:52:40.863Z,65.40
2018-02-20T08:55:10.135Z,65.30
2018-02-20T08:57:40.169Z,65.30
2018-02-20T09:00:09.436Z,63.60
2018-02-20T09:02:38.692Z,63.80
2018-02-20T09:05:07.912Z,64.30
2018-02-20T09:07:37.950Z,63.90
2018-02-20T09:10:07.184Z,63.60
2018-02-20T09:12:37.047Z,62.70
2018-02-20T09:15:07.098Z,61.80
2018-02-20T09:17:36.465Z,61.90
2018-02-20T09:20:05.684Z,62.30
2018-02-20T09:22:35.075Z,60.70
2018-02-20T09:25:04.335Z,60.90
2018-02-20T09:27:33.670Z,60.90
2018-02-20T09:30:02.912Z,59.90
2018-02-20T09:32:33.048Z,59.50
2018-02-20T09:35:02.388Z,60.10
2018-02-20T09:37:31.623Z,59.90
2018-02-20T09:40:00.973Z,59.60
2018-02-20T09:42:30.216Z,59.60
2018-02-20T09:45:00.162Z,59.90
2018-02-20T09:47:29.388Z,59.90
2018-02-20T09:49:59.124Z,59.30
2018-02-20T09:52:28.367Z,57.90
2018-02-20T09:54:57.828Z,56.90
2018-02-20T09:57:27.040Z,57.80
2018-02-20T09:59:57.612Z,56.90
2018-02-20T10:02:28.018Z,56.90
2018-02-20T10:04:57.792Z,56.30
2018-02-20T10:07:27.007Z,55.90
2018-02-20T10:09:56.825Z,56.00
2018-02-20T10:12:26.912Z,56.20
2018-02-20T10:14:56.184Z,56.20
2018-02-20T10:17:25.538Z,56.00
2018-02-20T10:19:55.529Z,54.40
2018-02-20T10:22:24.939Z,54.40
2018-02-20T10:24:54.207Z,54.60
2018-02-20T10:27:23.558Z,53.20
2018-02-20T10:29:53.793Z,52.40
2018-02-20T10:32:23.125Z,52.30
2018-02-20T10:34:52.362Z,51.70
2018-02-20T10:37:21.759Z,52.00
2018-02-20T10:39:51.679Z,51.20
2018-02-20T10:42:21.057Z,49.70
2018-02-20T10:44:51.107Z,50.80
2018-02-20T10:47:20.406Z,49.70
2018-02-20T10:49:50.048Z,50.50
2018-02-20T10:52:20.028Z,50.20
2018-02-20T10:54:49.254Z,50.10
2018-02-20T10:57:18.476Z,50.20
2018-02-20T10:59:47.791Z,50.80
2018-02-20T11:02:17.012Z,50.50
2018-02-20T11:04:46.537Z,51.00
2018-02-20T11:07:16.072Z,49.10
2018-02-20T11:09:46.363Z,48.80
2018-02-20T11:12:15.998Z,48.80
2018-02-20T11:14:45.403Z,48.40
2018-02-20T11:17:16.135Z,48.60
2018-02-20T11:19:46.872Z,47.50
2018-02-20T11:22:16.073Z,47.50
2018-02-20T11:24:45.918Z,48.40
2018-02-20T11:27:15.277Z,48.40
2018-02-20T11:29:44.501Z,47.40
2018-02-20T11:32:13.816Z,47.70
2018-02-20T11:34:43.144Z,48.20
2018-02-20T11:37:12.559Z,48.00
2018-02-20T11:39:41.786Z,47.10
2018-02-20T11:42:11.196Z,47.10
2018-02-20T11:44:41.190Z,47.20
2018-02-20T11:47:10.606Z,46.50
2018-02-20T11:49:40.596Z,45.70
2018-02-20T11:52:09.815Z,45.70
2018-02-20T11:54:39.317Z,46.00
2018-02-20T11:57:08.539Z,45.50
2018-02-20T11:59:37.953Z,45.40
2018-02-20T12:02:07.908Z,44.90
2018-02-20T12:04:37.336Z,44.80
2018-02-20T12:07:06.556Z,45.10
2018-02-20T12:09:35.931Z,45.00
2018-02-20T12:12:05.555Z,45.80
2018-02-20T12:14:34.926Z,45.90
2018-02-20T12:17:04.148Z,46.70
2018-02-20T12:19:33.587Z,46.60
2018-02-20T12:22:03.443Z,46.10
2018-02-20T12:24:32.965Z,46.50
2018-02-20T12:27:02.185Z,46.90
2018-02-20T12:29:31.423Z,46.90
2018-02-20T12:32:01.452Z,46.90
2018-02-20T12:34:31.506Z,47.10
2018-02-20T12:37:01.443Z,48.00
2018-02-20T12:39:31.436Z,46.80
2018-02-20T12:42:00.748Z,46.80
2018-02-20T12:44:29.972Z,47.20
2018-02-20T12:46:59.275Z,46.80
2018-02-20T12:49:29.056Z,46.60
2018-02-20T12:51:58.475Z,46.70
2018-02-20T12:54:27.673Z,46.60
2018-02-20T12:56:57.791Z,46.40
2018-02-20T12:59:27.800Z,46.80
2018-02-20T13:01:57.110Z,46.70
2018-02-20T13:04:26.341Z,45.90
2018-02-20T13:06:55.636Z,47.10
2018-02-20T13:09:24.948Z,48.10
2018-02-20T13:11:54.170Z,47.60
2018-02-20T13:14:23.511Z,47.70
2018-02-20T13:16:53.520Z,48.40
2018-02-20T13:19:22.814Z,48.40
2018-02-20T13:21:52.720Z,49.20
2018-02-20T13:24:22.128Z,48.80
2018-02-20T13:26:51.356Z,49.40
2018-02-20T13:29:21.543Z,48.80
2018-02-20T13:31:50.785Z,48.30
2018-02-20T13:34:20.031Z,48.90
2018-02-20T13:36:49.355Z,49.30
2018-02-20T13:39:18.582Z,49.10
2018-02-20T13:41:48.052Z,48.80
2018-02-20T13:44:17.280Z,48.70
2018-02-20T13:46:47.477Z,48.40
2018-02-20T13:49:16.700Z,48.10
2018-02-20T13:51:46.063Z,48.00
2018-02-20T13:54:15.299Z,48.50
2018-02-20T13:56:44.693Z,47.60
2018-02-20T13:59:14.762Z,47.00
2018-02-20T14:01:44.108Z,47.00
2018-02-20T14:04:14.244Z,47.00
2018-02-20T14:06:44.336Z,47.20
2018-02-20T14:09:13.680Z,47.10
2018-02-20T14:11:42.966Z,47.70
2018-02-20T14:14:13.080Z,48.30
2018-02-20T14:16:43.078Z,47.70
2018-02-20T14:19:12.482Z,47.50
2018-02-20T14:21:41.703Z,48.70
2018-02-20T14:24:11.087Z,48.50
2018-02-20T14:26:41.531Z,48.10
2018-02-20T14:29:11.346Z,48.20
2018-02-20T14:31:41.377Z,48.30
2018-02-20T14:34:10.647Z,48.20
2018-02-20T14:36:40.669Z,49.00
2018-02-20T14:39:09.884Z,48.00
2018-02-20T14:41:39.291Z,48.20
2018-02-20T14:44:08.539Z,48.00
2018-02-20T14:46:37.855Z,48.20
2018-02-20T14:49:07.095Z,48.40
2018-02-20T14:51:36.472Z,48.80
2018-02-20T14:54:05.692Z,48.90
2018-02-20T14:56:35.485Z,48.90
2018-02-20T14:59:04.713Z,48.90
2018-02-20T15:01:33.936Z,49.40
2018-02-20T15:04:03.824Z,49.00
2018-02-20T15:06:33.135Z,49.30
2018-02-20T15:09:02.439Z,49.50
2018-02-20T15:11:31.667Z,49.90
2018-02-20T15:14:01.012Z,49.90
2018-02-20T15:16:30.212Z,50.60
2018-02-20T15:18:59.839Z,50.40
2018-02-20T15:21:29.075Z,50.70
2018-02-20T15:23:59.828Z,50.70
2018-02-20T15:26:29.051Z,50.90
2018-02-20T15:28:58.437Z,51.30
2018-02-20T15:31:28.210Z,51.10
2018-02-20T15:33:57.532Z,51.40
2018-02-20T15:36:26.974Z,51.80
2018-02-20T15:38:57.779Z,52.70
2018-02-20T15:41:27.200Z,52.70
2018-02-20T15:43:56.882Z,53.10
2018-02-20T15:46:26.202Z,53.30
2018-02-20T15:48:55.424Z,53.70
2018-02-20T15:51:24.804Z,54.20
2018-02-20T15:53:54.023Z,54.50
2018-02-20T15:56:24.049Z,54.80
2018-02-20T15:58:54.051Z,55.20
2018-02-20T16:01:23.548Z,55.10
2018-02-20T16:03:53.292Z,55.70
2018-02-20T16:06:22.508Z,56.50
2018-02-20T16:08:51.808Z,56.50
2018-02-20T16:11:21.844Z,56.40
2018-02-20T16:13:51.377Z,56.40
2018-02-20T16:16:20.600Z,56.40
2018-02-20T16:18:50.100Z,57.20
2018-02-20T16:21:19.332Z,57.30
2018-02-20T16:23:48.799Z,57.40
2018-02-20T16:26:18.428Z,57.70
2018-02-20T16:28:47.808Z,58.30
2018-02-20T16:31:17.032Z,58.70
2018-02-20T16:33:47.009Z,58.70
2018-02-20T16:36:17.404Z,58.60
2018-02-20T16:38:47.869Z,58.30
2018-02-20T16:41:17.104Z,58.50
2018-02-20T16:43:46.342Z,58.70
2018-02-20T16:46:15.780Z,58.70
2018-02-20T16:48:45.013Z,59.20
2018-02-20T16:51:14.981Z,58.90
2018-02-20T16:53:44.214Z,59.20
2018-02-20T16:56:13.628Z,59.20
2018-02-20T16:58:42.944Z,59.40
2018-02-20T17:01:12.238Z,59.60
2018-02-20T17:03:42.027Z,59.70
2018-02-20T17:06:11.397Z,60.00
2018-02-20T17:08:40.614Z,60.50
2018-02-20T17:11:09.843Z,60.70
2018-02-20T17:13:39.277Z,60.70
2018-02-20T17:16:08.515Z,61.20
2018-02-20T17:18:37.950Z,61.50
2018-02-20T17:21:07.462Z,61.80
2018-02-20T17:23:36.920Z,62.30
2018-02-20T17:26:06.918Z,62.60
2018-02-20T17:28:37.572Z,62.60
2018-02-20T17:31:08.038Z,63.60
2018-02-20T17:33:37.470Z,63.50
2018-02-20T17:36:07.424Z,63.80
2018-02-20T17:38:36.832Z,63.70
2018-02-20T17:41:06.055Z,63.60
2018-02-20T17:43:35.275Z,63.50
2018-02-20T17:46:04.585Z,63.00
2018-02-20T17:48:33.805Z,62.80
2018-02-20T17:51:03.404Z,62.50
2018-02-20T17:53:32.643Z,62.80
2018-02-20T17:56:01.965Z,62.90
2018-02-20T17:58:31.211Z,63.20
2018-02-20T18:01:00.425Z,62.70
2018-02-20T18:03:29.842Z,62.80
2018-02-20T18:05:59.064Z,62.60
2018-02-20T18:08:29.050Z,62.90
2018-02-20T18:10:58.276Z,63.10
2018-02-20T18:13:28.692Z,63.50
2018-02-20T18:15:58.755Z,63.60
2018-02-20T18:18:27.989Z,63.60
2018-02-20T18:20:57.395Z,64.20
2018-02-20T18:23:26.616Z,64.30
2018-02-20T18:25:55.948Z,65.10
2018-02-20T18:28:25.196Z,65.40
2018-02-20T18:30:55.228Z,65.40
2018-02-20T18:33:25.245Z,65.80
2018-02-20T18:35:54.678Z,65.70
2018-02-20T18:38:24.394Z,65.90
2018-02-20T18:40:53.755Z,66.70
2018-02-20T18:43:22.975Z,66.80
2018-02-20T18:45:53.268Z,67.40
2018-02-20T18:48:23.117Z,67.30
2018-02-20T18:50:52.429Z,67.60
2018-02-20T18:53:21.653Z,68.50
2018-02-20T18:55:50.959Z,68.10
2018-02-20T18:58:20.204Z,68.10
2018-02-20T19:00:50.261Z,68.90
2018-02-20T19:03:19.513Z,68.80
2018-02-20T19:05:48.868Z,69.60
2018-02-20T19:08:18.152Z,69.30
2018-02-20T19:10:47.709Z,69.10
2018-02-20T19:13:16.950Z,71.20
2018-02-20T19:15:46.270Z,70.30
2018-02-20T19:18:15.504Z,69.80
2018-02-20T19:20:44.827Z,70.50
2018-02-20T19:23:14.060Z,71.50
2018-02-20T19:25:43.511Z,70.50
2018-02-20T19:28:12.736Z,71.00
2018-02-20T19:30:42.141Z,71.40
2018-02-20T19:33:11.347Z,72.20
2018-02-20T19:35:40.901Z,71.80
2018-02-20T19:38:10.129Z,71.60
2018-02-20T19:40:39.480Z,70.50
2018-02-20T19:43:08.699Z,70.30
2018-02-20T19:45:38.131Z,70.30
2018-02-20T19:48:07.348Z,70.00
2018-02-20T19:50:36.740Z,69.70
2018-02-20T19:53:06.783Z,68.60
2018-02-20T19:55:36.155Z,69.40
2018-02-20T19:58:06.100Z,68.50
2018-02-20T20:00:36.171Z,68.50
2018-02-20T20:03:05.971Z,68.40
2018-02-20T20:05:35.407Z,69.40
2018-02-20T20:08:04.631Z,68.80
2018-02-20T20:10:34.000Z,69.20
2018-02-20T20:13:03.268Z,69.00
2018-02-20T20:15:32.639Z,69.60
2018-02-20T20:18:01.825Z,69.00
2018-02-20T20:20:37.009Z,69.30
2018-02-20T20:23:00.397Z,69.80
2018-02-20T20:25:31.244Z,70.30
2018-02-20T20:28:00.522Z,71.00
2018-02-20T20:30:30.238Z,71.20
2018-02-20T20:33:00.080Z,71.90
2018-02-20T20:35:29.956Z,72.00
2018-02-20T20:37:59.208Z,73.30
2018-02-20T20:40:28.784Z,72.60
2018-02-20T20:42:58.017Z,73.10
2018-02-20T20:45:27.397Z,73.20
2018-02-20T20:47:56.620Z,72.70
2018-02-20T20:50:25.905Z,72.50
2018-02-20T20:52:56.146Z,73.50
2018-02-20T20:55:26.311Z,72.80
2018-02-20T20:57:56.144Z,72.70
2018-02-20T21:00:25.440Z,72.70
2018-02-20T21:02:54.840Z,72.00
2018-02-20T21:05:24.135Z,72.50
2018-02-20T21:07:53.362Z,71.70
2018-02-20T21:10:22.662Z,71.40
2018-02-20T21:12:51.891Z,70.60
2018-02-20T21:15:21.363Z,71.60
2018-02-20T21:17:50.580Z,70.70
2018-02-20T21:20:19.820Z,70.10
2018-02-20T21:22:50.612Z,69.60
2018-02-20T21:25:20.411Z,70.00
2018-02-20T21:27:50.081Z,69.50
2018-02-20T21:30:20.255Z,69.40
2018-02-20T21:32:50.296Z,68.70
2018-02-20T21:35:19.656Z,68.70
2018-02-20T21:37:48.889Z,69.00
2018-02-20T21:40:18.273Z,69.30
2018-02-20T21:42:47.800Z,68.70
2018-02-20T21:45:17.560Z,68.90
2018-02-20T21:47:46.808Z,68.60
2018-02-20T21:50:16.225Z,69.50
2018-02-20T21:52:45.468Z,69.40
2018-02-20T21:55:15.468Z,69.40
2018-02-20T21:57:45.019Z,69.40
2018-02-20T22:00:15.117Z,69.70
2018-02-20T22:02:44.344Z,69.60
2018-02-20T22:05:13.608Z,69.80
2018-02-20T22:07:42.932Z,70.10
2018-02-20T22:10:12.174Z,69.50
2018-02-20T22:12:42.265Z,69.70
2018-02-20T22:15:12.252Z,70.40
2018-02-20T22:17:41.662Z,70.40
2018-02-20T22:20:11.530Z,70.30
2018-02-20T22:22:40.875Z,69.80
2018-02-20T22:25:10.844Z,70.10
2018-02-20T22:27:41.116Z,70.40
2018-02-20T22:30:10.348Z,70.40
2018-02-20T22:32:39.716Z,70.30
2018-02-20T22:35:09.082Z,70.50
2018-02-20T22:37:38.389Z,70.30
2018-02-20T22:40:08.904Z,70.30
2018-02-20T22:42:38.395Z,70.30
2018-02-20T22:45:08.174Z,70.00
2018-02-20T22:47:38.189Z,70.50
2018-02-20T22:50:07.696Z,70.40
2018-02-20T22:52:37.644Z,70.50
2018-02-20T22:55:09.012Z,70.80
2018-02-20T22:57:38.999Z,70.90
2018-02-20T23:00:08.440Z,70.90
2018-02-20T23:02:37.675Z,70.90
2018-02-20T23:05:07.183Z,70.80
2018-02-20T23:07:36.423Z,70.40
2018-02-20T23:10:05.721Z,70.80
2018-02-20T23:12:34.972Z,70.80
2018-02-20T23:15:06.028Z,71.30
2018-02-20T23:17:36.251Z,71.20
2018-02-20T23:20:06.877Z,71.00
2018-02-20T23:22:36.111Z,70.80
2018-02-20T23:25:05.356Z,71.50
2018-02-20T23:27:34.916Z,71.20
2018-02-20T23:30:04.188Z,71.00
2018-02-20T23:32:33.597Z,71.70
2018-02-20T23:35:04.288Z,71.40
2018-02-20T23:37:33.637Z,71.40
2018-02-20T23:40:04.475Z,72.20
2018-02-20T23:42:34.200Z,72.10
2018-02-20T23:45:03.440Z,71.40
2018-02-20T23:47:33.061Z,71.60
2018-02-20T23:50:02.309Z,71.40
2018-02-20T23:52:32.684Z,71.60
2018-02-20T23:55:01.932Z,71.60
2018-02-20T23:57:31.306Z,71.30
